sensor_id;sensor_type;location;lat;lon;timestamp;pressure;altitude;pressure_sealevel;temperature;humidity
68197;BME280;55019;49.382;11.358;2023-11-19T00:00:50;96599.16;;;4.34;100.00
68197;BME280;55019;49.382;11.358;2023-11-19T00:03:17;96603.78;;;4.29;100.00
68197;BME280;55019;49.382;11.358;2023-11-19T00:05:43;96588.16;;;4.22;100.00
68197;BME280;55019;49.382;11.358;2023-11-19T00:08:10;96598.22;;;4.35;100.00
68197;BME280;55019;49.382;11.358;2023-11-19T00:10:36;96588.84;;;4.45;100.00
68197;BME280;55019;49.382;11.358;2023-11-19T00:13:01;96578.97;;;4.40;100.00
68197;BME280;55019;49.382;11.358;2023-11-19T00:15:28;96575.72;;;4.38;100.00
68197;BME280;55019;49.382;11.358;2023-11-19T00:17:54;96566.44;;;4.37;100.00
68197;BME280;55019;49.382;11.358;2023-11-19T00:20:20;96566.50;;;4.47;100.00
68197;BME280;55019;49.382;11.358;2023-11-19T00:22:47;96566.81;;;4.33;100.00
68197;BME280;55019;49.382;11.358;2023-11-19T00:25:20;96546.84;;;4.27;100.00
68197;BME280;55019;49.382;11.358;2023-11-19T00:27:47;96551.03;;;4.28;100.00
68197;BME280;55019;49.382;11.358;2023-11-19T00:30:13;96553.81;;;4.45;100.00
68197;BME280;55019;49.382;11.358;2023-11-19T00:32:40;96564.69;;;4.38;100.00
68197;BME280;55019;49.382;11.358;2023-11-19T00:35:06;96570.44;;;4.51;100.00
68197;BME280;55019;49.382;11.358;2023-11-19T00:37:41;96557.28;;;4.35;100.00
68197;BME280;55019;49.382;11.358;2023-11-19T00:40:08;96557.69;;;4.60;100.00
68197;BME280;55019;49.382;11.358;2023-11-19T00:42:36;96555.16;;;4.70;100.00
68197;BME280;55019;49.382;11.358;2023-11-19T00:45:01;96554.69;;;4.55;100.00
68197;BME280;55019;49.382;11.358;2023-11-19T00:47:27;96536.84;;;4.44;100.00
68197;BME280;55019;49.382;11.358;2023-11-19T00:49:53;96547.31;;;4.62;100.00
68197;BME280;55019;49.382;11.358;2023-11-19T00:52:19;96532.13;;;4.70;100.00
68197;BME280;55019;49.382;11.358;2023-11-19T00:54:45;96528.38;;;4.74;100.00
68197;BME280;55019;49.382;11.358;2023-11-19T00:57:10;96519.78;;;4.84;100.00
68197;BME280;55019;49.382;11.358;2023-11-19T00:59:36;96521.63;;;4.73;100.00
68197;BME280;55019;49.382;11.358;2023-11-19T01:02:02;96511.66;;;4.70;100.00
68197;BME280;55019;49.382;11.358;2023-11-19T01:04:29;96516.00;;;4.79;100.00
68197;BME280;55019;49.382;11.358;2023-11-19T01:06:55;96506.41;;;4.71;100.00
68197;BME280;55019;49.382;11.358;2023-11-19T01:09:21;96515.94;;;4.60;100.00
68197;BME280;55019;49.382;11.358;2023-11-19T01:11:46;96508.50;;;4.57;100.00
68197;BME280;55019;49.382;11.358;2023-11-19T01:14:12;96517.03;;;4.67;100.00
68197;BME280;55019;49.382;11.358;2023-11-19T01:16:38;96510.63;;;4.82;100.00
68197;BME280;55019;49.382;11.358;2023-11-19T01:19:03;96502.69;;;4.85;100.00
68197;BME280;55019;49.382;11.358;2023-11-19T01:21:30;96499.44;;;4.83;100.00
68197;BME280;55019;49.382;11.358;2023-11-19T01:23:59;96508.69;;;4.65;100.00
68197;BME280;55019;49.382;11.358;2023-11-19T01:26:26;96510.28;;;4.66;100.00
68197;BME280;55019;49.382;11.358;2023-11-19T01:28:52;96520.16;;;4.80;100.00
68197;BME280;55019;49.382;11.358;2023-11-19T01:31:18;96514.97;;;4.91;100.00
68197;BME280;55019;49.382;11.358;2023-11-19T01:33:44;96517.03;;;5.06;100.00
68197;BME280;55019;49.382;11.358;2023-11-19T01:36:15;96506.66;;;5.08;100.00
68197;BME280;55019;49.382;11.358;2023-11-19T01:38:41;96502.75;;;5.04;100.00
68197;BME280;55019;49.382;11.358;2023-11-19T01:41:06;96512.94;;;4.85;100.00
68197;BME280;55019;49.382;11.358;2023-11-19T01:43:37;96505.53;;;4.91;100.00
68197;BME280;55019;49.382;11.358;2023-11-19T01:46:05;96504.34;;;4.95;100.00
68197;BME280;55019;49.382;11.358;2023-11-19T01:48:33;96497.75;;;4.93;100.00
68197;BME280;55019;49.382;11.358;2023-11-19T01:51:00;96480.75;;;4.92;100.00
68197;BME280;55019;49.382;11.358;2023-11-19T01:53:27;96476.97;;;4.86;100.00
68197;BME280;55019;49.382;11.358;2023-11-19T01:55:55;96479.97;;;5.01;100.00
68197;BME280;55019;49.382;11.358;2023-11-19T01:58:23;96474.59;;;5.04;100.00
68197;BME280;55019;49.382;11.358;2023-11-19T02:00:48;96468.50;;;4.95;100.00
68197;BME280;55019;49.382;11.358;2023-11-19T02:03:15;96461.06;;;4.92;100.00
68197;BME280;55019;49.382;11.358;2023-11-19T02:05:40;96444.22;;;4.80;100.00
68197;BME280;55019;49.382;11.358;2023-11-19T02:08:06;96446.81;;;4.90;100.00
68197;BME280;55019;49.382;11.358;2023-11-19T02:10:33;96437.06;;;4.74;100.00
68197;BME280;55019;49.382;11.358;2023-11-19T02:13:00;96430.50;;;4.91;100.00
68197;BME280;55019;49.382;11.358;2023-11-19T02:15:26;96419.06;;;4.95;100.00
68197;BME280;55019;49.382;11.358;2023-11-19T02:17:52;96417.28;;;4.86;100.00
68197;BME280;55019;49.382;11.358;2023-11-19T02:20:18;96419.03;;;4.85;100.00
68197;BME280;55019;49.382;11.358;2023-11-19T02:22:46;96405.44;;;4.85;100.00
68197;BME280;55019;49.382;11.358;2023-11-19T02:25:21;96401.50;;;4.81;100.00
68197;BME280;55019;49.382;11.358;2023-11-19T02:27:54;96411.63;;;4.82;100.00
68197;BME280;55019;49.382;11.358;2023-11-19T02:30:21;96400.03;;;4.88;100.00
68197;BME280;55019;49.382;11.358;2023-11-19T02:33:01;96409.84;;;4.83;100.00
68197;BME280;55019;49.382;11.358;2023-11-19T02:35:28;96412.00;;;4.78;100.00
68197;BME280;55019;49.382;11.358;2023-11-19T02:37:58;96410.69;;;5.02;100.00
68197;BME280;55019;49.382;11.358;2023-11-19T02:40:25;96407.75;;;5.16;100.00
68197;BME280;55019;49.382;11.358;2023-11-19T02:42:54;96426.59;;;5.06;100.00
68197;BME280;55019;49.382;11.358;2023-11-19T02:45:24;96415.28;;;5.18;100.00
68197;BME280;55019;49.382;11.358;2023-11-19T02:47:51;96416.47;;;5.04;100.00
68197;BME280;55019;49.382;11.358;2023-11-19T02:50:18;96415.03;;;5.21;100.00
68197;BME280;55019;49.382;11.358;2023-11-19T02:52:52;96420.94;;;5.31;100.00
68197;BME280;55019;49.382;11.358;2023-11-19T02:55:19;96404.91;;;5.29;100.00
68197;BME280;55019;49.382;11.358;2023-11-19T02:57:45;96400.63;;;5.39;100.00
68197;BME280;55019;49.382;11.358;2023-11-19T03:00:18;96394.81;;;5.37;100.00
68197;BME280;55019;49.382;11.358;2023-11-19T03:02:49;96403.41;;;5.36;100.00
68197;BME280;55019;49.382;11.358;2023-11-19T03:05:25;96398.06;;;5.39;100.00
68197;BME280;55019;49.382;11.358;2023-11-19T03:07:52;96401.69;;;5.17;100.00
68197;BME280;55019;49.382;11.358;2023-11-19T03:10:18;96399.78;;;5.29;100.00
68197;BME280;55019;49.382;11.358;2023-11-19T03:12:44;96395.34;;;5.21;100.00
68197;BME280;55019;49.382;11.358;2023-11-19T03:15:10;96391.69;;;5.33;100.00
68197;BME280;55019;49.382;11.358;2023-11-19T03:17:41;96402.22;;;5.40;100.00
68197;BME280;55019;49.382;11.358;2023-11-19T03:20:09;96397.38;;;5.37;100.00
68197;BME280;55019;49.382;11.358;2023-11-19T03:22:39;96398.44;;;5.34;100.00
68197;BME280;55019;49.382;11.358;2023-11-19T03:25:07;96402.22;;;5.21;100.00
68197;BME280;55019;49.382;11.358;2023-11-19T03:27:37;96400.72;;;5.28;100.00
68197;BME280;55019;49.382;11.358;2023-11-19T03:30:09;96393.16;;;5.36;100.00
68197;BME280;55019;49.382;11.358;2023-11-19T03:32:36;96392.78;;;5.40;100.00
68197;BME280;55019;49.382;11.358;2023-11-19T03:35:02;96397.78;;;5.42;100.00
68197;BME280;55019;49.382;11.358;2023-11-19T03:37:30;96384.56;;;5.37;100.00
68197;BME280;55019;49.382;11.358;2023-11-19T03:39:57;96383.47;;;5.39;100.00
68197;BME280;55019;49.382;11.358;2023-11-19T03:42:28;96385.38;;;5.47;100.00
68197;BME280;55019;49.382;11.358;2023-11-19T03:44:56;96386.44;;;5.44;100.00
68197;BME280;55019;49.382;11.358;2023-11-19T03:47:22;96384.41;;;5.38;100.00
68197;BME280;55019;49.382;11.358;2023-11-19T03:49:49;96365.13;;;5.44;100.00
68197;BME280;55019;49.382;11.358;2023-11-19T03:52:15;96363.25;;;5.27;100.00
68197;BME280;55019;49.382;11.358;2023-11-19T03:54:40;96340.63;;;5.13;100.00
68197;BME280;55019;49.382;11.358;2023-11-19T03:57:06;96330.38;;;5.13;100.00
68197;BME280;55019;49.382;11.358;2023-11-19T03:59:32;96344.13;;;5.12;100.00
68197;BME280;55019;49.382;11.358;2023-11-19T04:01:59;96314.88;;;5.05;100.00
68197;BME280;55019;49.382;11.358;2023-11-19T04:04:26;96272.97;;;5.06;100.00
68197;BME280;55019;49.382;11.358;2023-11-19T04:06:53;96267.19;;;5.04;100.00
68197;BME280;55019;49.382;11.358;2023-11-19T04:09:19;96271.34;;;4.95;100.00
68197;BME280;55019;49.382;11.358;2023-11-19T04:11:45;96265.72;;;4.92;100.00
68197;BME280;55019;49.382;11.358;2023-11-19T04:14:13;96243.91;;;4.78;100.00
68197;BME280;55019;49.382;11.358;2023-11-19T04:16:39;96246.19;;;4.81;100.00
68197;BME280;55019;49.382;11.358;2023-11-19T04:19:05;96265.03;;;4.80;100.00
68197;BME280;55019;49.382;11.358;2023-11-19T04:21:32;96256.16;;;4.84;100.00
68197;BME280;55019;49.382;11.358;2023-11-19T04:23:58;96261.25;;;4.94;100.00
68197;BME280;55019;49.382;11.358;2023-11-19T04:26:24;96277.56;;;4.93;100.00
68197;BME280;55019;49.382;11.358;2023-11-19T04:28:50;96281.31;;;4.98;100.00
68197;BME280;55019;49.382;11.358;2023-11-19T04:31:17;96306.13;;;4.98;100.00
68197;BME280;55019;49.382;11.358;2023-11-19T04:33:43;96302.06;;;5.05;100.00
68197;BME280;55019;49.382;11.358;2023-11-19T04:36:10;96297.22;;;5.11;100.00
68197;BME280;55019;49.382;11.358;2023-11-19T04:38:36;96320.41;;;5.10;100.00
68197;BME280;55019;49.382;11.358;2023-11-19T04:41:05;96300.19;;;5.16;100.00
68197;BME280;55019;49.382;11.358;2023-11-19T04:43:31;96314.69;;;5.35;100.00
68197;BME280;55019;49.382;11.358;2023-11-19T04:45:57;96301.50;;;5.39;100.00
68197;BME280;55019;49.382;11.358;2023-11-19T04:48:24;96316.84;;;5.49;100.00
68197;BME280;55019;49.382;11.358;2023-11-19T04:50:50;96308.88;;;5.52;100.00
68197;BME280;55019;49.382;11.358;2023-11-19T04:53:19;96320.09;;;5.51;100.00
68197;BME280;55019;49.382;11.358;2023-11-19T04:55:45;96321.03;;;5.40;100.00
68197;BME280;55019;49.382;11.358;2023-11-19T04:58:11;96313.91;;;5.44;100.00
68197;BME280;55019;49.382;11.358;2023-11-19T05:00:36;96313.34;;;5.50;100.00
68197;BME280;55019;49.382;11.358;2023-11-19T05:03:02;96325.03;;;5.62;100.00
68197;BME280;55019;49.382;11.358;2023-11-19T05:05:28;96324.66;;;5.57;100.00
68197;BME280;55019;49.382;11.358;2023-11-19T05:07:54;96310.72;;;5.68;100.00
68197;BME280;55019;49.382;11.358;2023-11-19T05:10:21;96307.91;;;5.62;100.00
68197;BME280;55019;49.382;11.358;2023-11-19T05:12:46;96298.47;;;5.63;100.00
68197;BME280;55019;49.382;11.358;2023-11-19T05:15:12;96313.28;;;5.68;100.00
68197;BME280;55019;49.382;11.358;2023-11-19T05:17:38;96305.47;;;5.70;100.00
68197;BME280;55019;49.382;11.358;2023-11-19T05:20:04;96303.13;;;5.76;100.00
68197;BME280;55019;49.382;11.358;2023-11-19T05:22:30;96301.25;;;5.78;100.00
68197;BME280;55019;49.382;11.358;2023-11-19T05:24:57;96298.53;;;5.89;100.00
68197;BME280;55019;49.382;11.358;2023-11-19T05:27:23;96306.75;;;5.93;100.00
68197;BME280;55019;49.382;11.358;2023-11-19T05:29:49;96298.78;;;5.96;100.00
68197;BME280;55019;49.382;11.358;2023-11-19T05:32:15;96305.13;;;5.92;100.00
68197;BME280;55019;49.382;11.358;2023-11-19T05:34:40;96304.34;;;5.91;100.00
68197;BME280;55019;49.382;11.358;2023-11-19T05:37:06;96295.13;;;5.98;100.00
68197;BME280;55019;49.382;11.358;2023-11-19T05:39:33;96296.22;;;5.96;100.00
68197;BME280;55019;49.382;11.358;2023-11-19T05:41:58;96284.88;;;5.98;100.00
68197;BME280;55019;49.382;11.358;2023-11-19T05:44:24;96278.34;;;6.04;100.00
68197;BME280;55019;49.382;11.358;2023-11-19T05:46:50;96289.16;;;6.07;100.00
68197;BME280;55019;49.382;11.358;2023-11-19T05:49:15;96280.63;;;6.07;100.00
68197;BME280;55019;49.382;11.358;2023-11-19T05:51:41;96283.56;;;6.12;100.00
68197;BME280;55019;49.382;11.358;2023-11-19T05:54:08;96269.56;;;6.06;100.00
68197;BME280;55019;49.382;11.358;2023-11-19T05:56:34;96285.06;;;6.14;100.00
68197;BME280;55019;49.382;11.358;2023-11-19T05:59:00;96274.38;;;6.19;100.00
68197;BME280;55019;49.382;11.358;2023-11-19T06:01:34;96271.38;;;6.23;100.00
68197;BME280;55019;49.382;11.358;2023-11-19T06:03:59;96262.06;;;6.22;100.00
68197;BME280;55019;49.382;11.358;2023-11-19T06:06:28;96254.53;;;6.21;100.00
68197;BME280;55019;49.382;11.358;2023-11-19T06:08:54;96253.84;;;6.36;100.00
68197;BME280;55019;49.382;11.358;2023-11-19T06:11:20;96266.03;;;6.34;100.00
68197;BME280;55019;49.382;11.358;2023-11-19T06:13:46;96257.13;;;6.38;100.00
68197;BME280;55019;49.382;11.358;2023-11-19T06:16:13;96264.13;;;6.36;100.00
68197;BME280;55019;49.382;11.358;2023-11-19T06:18:39;96268.53;;;6.44;100.00
68197;BME280;55019;49.382;11.358;2023-11-19T06:21:06;96260.34;;;6.40;100.00
68197;BME280;55019;49.382;11.358;2023-11-19T06:23:32;96263.94;;;6.47;100.00
68197;BME280;55019;49.382;11.358;2023-11-19T06:25:58;96267.28;;;6.48;100.00
68197;BME280;55019;49.382;11.358;2023-11-19T06:28:24;96276.47;;;6.50;100.00
68197;BME280;55019;49.382;11.358;2023-11-19T06:30:50;96271.72;;;6.55;100.00
68197;BME280;55019;49.382;11.358;2023-11-19T06:33:16;96264.72;;;6.48;100.00
68197;BME280;55019;49.382;11.358;2023-11-19T06:35:43;96279.25;;;6.57;100.00
68197;BME280;55019;49.382;11.358;2023-11-19T06:38:10;96269.44;;;6.52;100.00
68197;BME280;55019;49.382;11.358;2023-11-19T06:40:36;96278.81;;;6.61;100.00
68197;BME280;55019;49.382;11.358;2023-11-19T06:43:01;96272.59;;;6.64;100.00
68197;BME280;55019;49.382;11.358;2023-11-19T06:45:30;96275.75;;;6.75;100.00
68197;BME280;55019;49.382;11.358;2023-11-19T06:47:55;96267.66;;;6.70;100.00
68197;BME280;55019;49.382;11.358;2023-11-19T06:50:21;96263.06;;;6.74;100.00
68197;BME280;55019;49.382;11.358;2023-11-19T06:52:47;96275.44;;;6.78;100.00
68197;BME280;55019;49.382;11.358;2023-11-19T06:55:13;96281.41;;;6.79;100.00
68197;BME280;55019;49.382;11.358;2023-11-19T06:57:39;96284.81;;;6.87;100.00
68197;BME280;55019;49.382;11.358;2023-11-19T07:00:06;96280.44;;;6.97;100.00
68197;BME280;55019;49.382;11.358;2023-11-19T07:02:31;96276.63;;;7.01;100.00
68197;BME280;55019;49.382;11.358;2023-11-19T07:04:57;96279.25;;;7.09;100.00
68197;BME280;55019;49.382;11.358;2023-11-19T07:07:23;96280.25;;;7.16;100.00
68197;BME280;55019;49.382;11.358;2023-11-19T07:09:49;96281.56;;;7.20;100.00
68197;BME280;55019;49.382;11.358;2023-11-19T07:12:15;96282.22;;;7.22;100.00
68197;BME280;55019;49.382;11.358;2023-11-19T07:14:41;96272.63;;;7.24;100.00
68197;BME280;55019;49.382;11.358;2023-11-19T07:17:07;96273.72;;;7.21;100.00
68197;BME280;55019;49.382;11.358;2023-11-19T07:19:34;96277.81;;;7.32;100.00
68197;BME280;55019;49.382;11.358;2023-11-19T07:22:02;96288.44;;;7.37;100.00
68197;BME280;55019;49.382;11.358;2023-11-19T07:24:28;96288.16;;;7.40;100.00
68197;BME280;55019;49.382;11.358;2023-11-19T07:26:54;96282.72;;;7.43;100.00
68197;BME280;55019;49.382;11.358;2023-11-19T07:29:20;96287.59;;;7.54;100.00
68197;BME280;55019;49.382;11.358;2023-11-19T07:31:49;96288.25;;;7.56;100.00
68197;BME280;55019;49.382;11.358;2023-11-19T07:34:15;96265.72;;;7.50;100.00
68197;BME280;55019;49.382;11.358;2023-11-19T07:36:40;96286.81;;;7.61;100.00
68197;BME280;55019;49.382;11.358;2023-11-19T07:39:06;96288.34;;;7.72;100.00
68197;BME280;55019;49.382;11.358;2023-11-19T07:41:32;96293.34;;;7.73;100.00
68197;BME280;55019;49.382;11.358;2023-11-19T07:43:58;96295.41;;;7.70;100.00
68197;BME280;55019;49.382;11.358;2023-11-19T07:46:24;96303.47;;;7.75;100.00
68197;BME280;55019;49.382;11.358;2023-11-19T07:48:51;96297.06;;;7.79;100.00
68197;BME280;55019;49.382;11.358;2023-11-19T07:51:18;96298.22;;;7.84;100.00
68197;BME280;55019;49.382;11.358;2023-11-19T07:53:43;96295.66;;;7.84;100.00
68197;BME280;55019;49.382;11.358;2023-11-19T07:56:09;96303.28;;;7.94;100.00
68197;BME280;55019;49.382;11.358;2023-11-19T07:58:36;96304.25;;;8.01;100.00
68197;BME280;55019;49.382;11.358;2023-11-19T08:01:02;96288.53;;;8.04;100.00
68197;BME280;55019;49.382;11.358;2023-11-19T08:03:28;96298.50;;;8.07;100.00
68197;BME280;55019;49.382;11.358;2023-11-19T08:05:58;96295.94;;;8.07;100.00
68197;BME280;55019;49.382;11.358;2023-11-19T08:08:24;96294.19;;;8.15;100.00
68197;BME280;55019;49.382;11.358;2023-11-19T08:10:49;96298.28;;;8.26;100.00
68197;BME280;55019;49.382;11.358;2023-11-19T08:13:18;96298.34;;;8.16;100.00
68197;BME280;55019;49.382;11.358;2023-11-19T08:15:43;96294.03;;;8.17;100.00
68197;BME280;55019;49.382;11.358;2023-11-19T08:18:09;96298.59;;;8.23;100.00
68197;BME280;55019;49.382;11.358;2023-11-19T08:20:35;96298.94;;;8.28;100.00
68197;BME280;55019;49.382;11.358;2023-11-19T08:23:02;96304.41;;;8.33;100.00
68197;BME280;55019;49.382;11.358;2023-11-19T08:25:29;96289.47;;;8.36;100.00
68197;BME280;55019;49.382;11.358;2023-11-19T08:27:55;96287.69;;;8.37;100.00
68197;BME280;55019;49.382;11.358;2023-11-19T08:30:20;96289.66;;;8.43;100.00
68197;BME280;55019;49.382;11.358;2023-11-19T08:32:46;96284.19;;;8.46;100.00
68197;BME280;55019;49.382;11.358;2023-11-19T08:35:12;96280.66;;;8.47;100.00
68197;BME280;55019;49.382;11.358;2023-11-19T08:37:37;96284.88;;;8.56;100.00
68197;BME280;55019;49.382;11.358;2023-11-19T08:40:04;96292.09;;;8.60;100.00
68197;BME280;55019;49.382;11.358;2023-11-19T08:42:30;96278.13;;;8.62;100.00
68197;BME280;55019;49.382;11.358;2023-11-19T08:44:56;96291.19;;;8.69;100.00
68197;BME280;55019;49.382;11.358;2023-11-19T08:47:22;96277.16;;;8.63;100.00
68197;BME280;55019;49.382;11.358;2023-11-19T08:49:51;96292.63;;;8.71;100.00
68197;BME280;55019;49.382;11.358;2023-11-19T08:52:17;96286.03;;;8.77;100.00
68197;BME280;55019;49.382;11.358;2023-11-19T08:54:43;96281.34;;;8.72;100.00
68197;BME280;55019;49.382;11.358;2023-11-19T08:57:09;96285.88;;;8.78;100.00
68197;BME280;55019;49.382;11.358;2023-11-19T08:59:35;96288.75;;;8.83;100.00
68197;BME280;55019;49.382;11.358;2023-11-19T09:02:04;96294.88;;;8.90;100.00
68197;BME280;55019;49.382;11.358;2023-11-19T09:04:30;96294.88;;;8.90;100.00
68197;BME280;55019;49.382;11.358;2023-11-19T09:06:57;96309.41;;;8.99;100.00
68197;BME280;55019;49.382;11.358;2023-11-19T09:09:23;96297.97;;;9.10;100.00
68197;BME280;55019;49.382;11.358;2023-11-19T09:11:49;96287.84;;;9.08;100.00
68197;BME280;55019;49.382;11.358;2023-11-19T09:14:14;96292.03;;;9.17;100.00
68197;BME280;55019;49.382;11.358;2023-11-19T09:16:41;96287.50;;;9.27;100.00
68197;BME280;55019;49.382;11.358;2023-11-19T09:19:07;96289.94;;;9.37;100.00
68197;BME280;55019;49.382;11.358;2023-11-19T09:21:32;96286.84;;;9.49;100.00
68197;BME280;55019;49.382;11.358;2023-11-19T09:24:00;96297.63;;;9.53;100.00
68197;BME280;55019;49.382;11.358;2023-11-19T09:26:25;96289.09;;;9.60;100.00
68197;BME280;55019;49.382;11.358;2023-11-19T09:28:51;96303.91;;;9.66;100.00
68197;BME280;55019;49.382;11.358;2023-11-19T09:31:18;96299.53;;;9.67;100.00
68197;BME280;55019;49.382;11.358;2023-11-19T09:33:44;96305.84;;;9.72;100.00
68197;BME280;55019;49.382;11.358;2023-11-19T09:36:12;96310.50;;;9.77;100.00
68197;BME280;55019;49.382;11.358;2023-11-19T09:38:40;96297.47;;;9.70;100.00
68197;BME280;55019;49.382;11.358;2023-11-19T09:41:06;96305.34;;;9.85;100.00
68197;BME280;55019;49.382;11.358;2023-11-19T09:43:35;96307.41;;;9.97;100.00
68197;BME280;55019;49.382;11.358;2023-11-19T09:46:05;96318.03;;;10.10;100.00
68197;BME280;55019;49.382;11.358;2023-11-19T09:48:36;96322.25;;;10.03;100.00
68197;BME280;55019;49.382;11.358;2023-11-19T09:51:07;96305.94;;;10.02;100.00
68197;BME280;55019;49.382;11.358;2023-11-19T09:53:36;96313.19;;;10.15;100.00
68197;BME280;55019;49.382;11.358;2023-11-19T09:56:03;96312.19;;;10.24;100.00
68197;BME280;55019;49.382;11.358;2023-11-19T09:58:30;96310.88;;;10.28;100.00
68197;BME280;55019;49.382;11.358;2023-11-19T10:00:57;96312.97;;;10.32;100.00
68197;BME280;55019;49.382;11.358;2023-11-19T10:03:34;96306.84;;;10.25;100.00
68197;BME280;55019;49.382;11.358;2023-11-19T10:06:06;96299.59;;;10.21;100.00
68197;BME280;55019;49.382;11.358;2023-11-19T10:08:33;96305.22;;;10.32;100.00
68197;BME280;55019;49.382;11.358;2023-11-19T10:10:59;96291.03;;;10.28;100.00
68197;BME280;55019;49.382;11.358;2023-11-19T10:13:29;96295.38;;;10.28;100.00
68197;BME280;55019;49.382;11.358;2023-11-19T10:15:57;96284.72;;;10.31;100.00
68197;BME280;55019;49.382;11.358;2023-11-19T10:18:26;96277.59;;;10.33;100.00
68197;BME280;55019;49.382;11.358;2023-11-19T10:20:53;96290.81;;;10.38;100.00
68197;BME280;55019;49.382;11.358;2023-11-19T10:23:19;96288.50;;;10.43;100.00
68197;BME280;55019;49.382;11.358;2023-11-19T10:25:45;96289.19;;;10.37;100.00
68197;BME280;55019;49.382;11.358;2023-11-19T10:28:11;96283.06;;;10.38;100.00
68197;BME280;55019;49.382;11.358;2023-11-19T10:30:36;96279.34;;;10.40;100.00
68197;BME280;55019;49.382;11.358;2023-11-19T10:33:10;96274.31;;;10.47;100.00
68197;BME280;55019;49.382;11.358;2023-11-19T10:35:57;96271.69;;;10.55;100.00
68197;BME280;55019;49.382;11.358;2023-11-19T10:38:24;96265.91;;;10.45;100.00
68197;BME280;55019;49.382;11.358;2023-11-19T10:40:51;96253.34;;;10.42;100.00
68197;BME280;55019;49.382;11.358;2023-11-19T10:43:21;96264.97;;;10.38;100.00
68197;BME280;55019;49.382;11.358;2023-11-19T10:45:51;96266.72;;;10.45;100.00
68197;BME280;55019;49.382;11.358;2023-11-19T10:48:23;96276.25;;;10.45;100.00
68197;BME280;55019;49.382;11.358;2023-11-19T10:50:53;96255.81;;;10.35;100.00
68197;BME280;55019;49.382;11.358;2023-11-19T10:53:23;96270.53;;;10.27;100.00
68197;BME280;55019;49.382;11.358;2023-11-19T10:55:52;96261.69;;;10.13;100.00
68197;BME280;55019;49.382;11.358;2023-11-19T10:58:21;96261.50;;;10.23;100.00
68197;BME280;55019;49.382;11.358;2023-11-19T11:00:51;96263.41;;;10.29;100.00
68197;BME280;55019;49.382;11.358;2023-11-19T11:03:19;96255.91;;;10.50;100.00
68197;BME280;55019;49.382;11.358;2023-11-19T11:05:50;96264.81;;;10.70;100.00
68197;BME280;55019;49.382;11.358;2023-11-19T11:08:17;96269.63;;;11.18;100.00
68197;BME280;55019;49.382;11.358;2023-11-19T11:10:44;96260.34;;;12.11;100.00
68197;BME280;55019;49.382;11.358;2023-11-19T11:13:11;96249.50;;;12.37;100.00
68197;BME280;55019;49.382;11.358;2023-11-19T11:15:38;96267.28;;;12.25;100.00
68197;BME280;55019;49.382;11.358;2023-11-19T11:18:08;96265.81;;;12.37;100.00
68197;BME280;55019;49.382;11.358;2023-11-19T11:20:36;96270.50;;;12.98;100.00
68197;BME280;55019;49.382;11.358;2023-11-19T11:26:39;96263.91;;;11.96;100.00
68197;BME280;55019;49.382;11.358;2023-11-19T11:29:16;96255.47;;;11.50;100.00
68197;BME280;55019;49.382;11.358;2023-11-19T11:31:55;96262.31;;;11.21;100.00
68197;BME280;55019;49.382;11.358;2023-11-19T11:39:34;96254.69;;;11.05;100.00
68197;BME280;55019;49.382;11.358;2023-11-19T11:45:03;96244.44;;;11.56;100.00
68197;BME280;55019;49.382;11.358;2023-11-19T11:50:15;96247.22;;;11.10;100.00
68197;BME280;55019;49.382;11.358;2023-11-19T11:55:52;96249.75;;;10.96;100.00
68197;BME280;55019;49.382;11.358;2023-11-19T11:58:19;96235.34;;;11.01;100.00
68197;BME280;55019;49.382;11.358;2023-11-19T12:00:47;96241.72;;;10.91;100.00
68197;BME280;55019;49.382;11.358;2023-11-19T12:03:13;96242.69;;;10.90;100.00
68197;BME280;55019;49.382;11.358;2023-11-19T12:05:45;96243.03;;;10.87;100.00
68197;BME280;55019;49.382;11.358;2023-11-19T12:08:28;96242.34;;;10.93;100.00
68197;BME280;55019;49.382;11.358;2023-11-19T12:10:56;96237.81;;;10.95;100.00
68197;BME280;55019;49.382;11.358;2023-11-19T12:13:44;96232.41;;;10.82;100.00
68197;BME280;55019;49.382;11.358;2023-11-19T12:16:11;96221.03;;;10.91;100.00
68197;BME280;55019;49.382;11.358;2023-11-19T12:18:39;96200.16;;;10.78;100.00
68197;BME280;55019;49.382;11.358;2023-11-19T12:21:06;96209.56;;;10.93;100.00
68197;BME280;55019;49.382;11.358;2023-11-19T12:23:33;96205.19;;;10.94;100.00
68197;BME280;55019;49.382;11.358;2023-11-19T12:26:00;96184.22;;;10.89;100.00
68197;BME280;55019;49.382;11.358;2023-11-19T12:28:26;96189.94;;;10.84;100.00
68197;BME280;55019;49.382;11.358;2023-11-19T12:30:53;96195.66;;;10.94;100.00
68197;BME280;55019;49.382;11.358;2023-11-19T12:33:19;96179.75;;;10.83;100.00
68197;BME280;55019;49.382;11.358;2023-11-19T12:35:47;96179.25;;;10.87;100.00
68197;BME280;55019;49.382;11.358;2023-11-19T12:38:20;96195.44;;;10.81;100.00
68197;BME280;55019;49.382;11.358;2023-11-19T12:41:09;96189.47;;;10.81;100.00
68197;BME280;55019;49.382;11.358;2023-11-19T12:43:37;96189.94;;;10.84;100.00
68197;BME280;55019;49.382;11.358;2023-11-19T12:46:23;96192.41;;;10.78;100.00
68197;BME280;55019;49.382;11.358;2023-11-19T12:48:53;96192.69;;;11.20;100.00
68197;BME280;55019;49.382;11.358;2023-11-19T12:51:20;96192.25;;;11.31;100.00
68197;BME280;55019;49.382;11.358;2023-11-19T12:53:53;96186.00;;;11.11;100.00
68197;BME280;55019;49.382;11.358;2023-11-19T12:56:24;96186.75;;;10.97;100.00
68197;BME280;55019;49.382;11.358;2023-11-19T12:58:53;96196.41;;;11.03;100.00
68197;BME280;55019;49.382;11.358;2023-11-19T13:01:20;96193.75;;;11.11;100.00
68197;BME280;55019;49.382;11.358;2023-11-19T13:03:46;96200.44;;;11.20;100.00
68197;BME280;55019;49.382;11.358;2023-11-19T13:06:14;96190.03;;;11.28;100.00